Time;durP1;ratioP1;P1;durP2;ratioP2;P2;SDS_P1;SDS_P2;PMS_P1;PMS_P2;Temp;Humidity;BMP_temperature;BMP_pressure;BME280_temperature;BME280_humidity;BME280_pressure;Samples;Min_cycle;Max_cycle;Signal;HPM_P1;HPM_P2
2022/04/27 00:00:56;;;;;;;2.20;1.10;;;17.40;57.50;;;;;;5009730;28;20327;-57
2022/04/27 00:03:34;;;;;;;1.65;0.90;;;17.40;57.50;;;;;;5012407;28;20204;-57
2022/04/27 00:06:10;;;;;;;1.77;1.00;;;17.40;57.50;;;;;;5012016;28;20220;-57
2022/04/27 00:08:45;;;;;;;1.63;1.10;;;17.50;57.50;;;;;;5011762;28;20226;-57
2022/04/27 00:11:16;;;;;;;2.42;1.00;;;17.50;57.50;;;;;;5010962;28;20279;-57
2022/04/27 00:13:56;;;;;;;0.95;0.95;;;17.60;57.50;;;;;;5010074;28;20283;-58
2022/04/27 00:16:27;;;;;;;1.75;1.20;;;17.60;57.50;;;;;;5011218;28;20637;-58
2022/04/27 00:19:10;;;;;;;1.35;0.85;;;17.60;57.50;;;;;;5011620;28;20310;-58
2022/04/27 00:21:52;;;;;;;2.22;1.13;;;17.70;57.50;;;;;;5007912;28;20193;-57
2022/04/27 00:24:27;;;;;;;3.00;1.15;;;17.70;57.50;;;;;;4996225;28;20207;-58
2022/04/27 00:27:04;;;;;;;2.13;1.10;;;17.70;57.50;;;;;;5010403;28;20220;-57
2022/04/27 00:29:39;;;;;;;1.73;1.23;;;17.80;57.50;;;;;;5009375;28;20200;-57
2022/04/27 00:32:16;;;;;;;2.40;1.20;;;17.80;57.50;;;;;;5010629;28;20250;-58
2022/04/27 00:34:57;;;;;;;1.27;0.90;;;17.80;57.50;;;;;;5006670;28;20208;-57
2022/04/27 00:37:28;;;;;;;1.17;1.02;;;17.90;59.30;;;;;;5026449;28;20215;-57
2022/04/27 00:40:03;;;;;;;1.20;1.10;;;18.00;59.80;;;;;;5023593;28;20228;-57
2022/04/27 00:42:36;;;;;;;1.38;1.10;;;18.00;59.80;;;;;;5011192;28;20557;-58
2022/04/27 00:45:16;;;;;;;1.38;1.00;;;18.10;59.70;;;;;;5025679;28;20823;-58
2022/04/27 00:47:48;;;;;;;1.58;1.20;;;18.10;59.40;;;;;;5023700;28;20208;-58
2022/04/27 00:50:30;;;;;;;1.42;1.10;;;18.20;59.20;;;;;;5027464;28;20703;-57
2022/04/27 00:53:08;;;;;;;2.50;1.15;;;18.20;59.00;;;;;;5026310;28;20275;-56
2022/04/27 00:55:39;;;;;;;1.42;1.10;;;18.30;58.90;;;;;;5023267;28;20691;-58
2022/04/27 00:58:12;;;;;;;1.10;1.00;;;18.30;58.80;;;;;;5025184;28;20219;-57
2022/04/27 01:00:45;;;;;;;1.77;1.00;;;18.30;58.70;;;;;;5026089;28;20318;-58
2022/04/27 01:03:20;;;;;;;2.38;1.42;;;18.40;58.70;;;;;;5027065;28;20660;-57
2022/04/27 01:06:10;;;;;;;2.40;1.70;;;18.40;58.60;;;;;;5024843;28;20259;-58
2022/04/27 01:08:46;;;;;;;2.08;1.40;;;18.40;58.60;;;;;;5024754;28;20200;-57
2022/04/27 01:11:20;;;;;;;1.75;1.27;;;18.50;58.50;;;;;;5026592;28;20903;-56
2022/04/27 01:14:01;;;;;;;2.15;1.63;;;18.50;58.40;;;;;;5025781;28;20192;-57
2022/04/27 01:16:33;;;;;;;3.08;1.90;;;18.60;58.50;;;;;;5025456;28;20734;-57
2022/04/27 01:19:07;;;;;;;3.15;1.50;;;18.60;58.30;;;;;;5023144;28;20220;-57
2022/04/27 01:21:44;;;;;;;2.22;1.77;;;18.60;58.30;;;;;;5024035;28;20319;-57
2022/04/27 01:24:16;;;;;;;3.33;2.83;;;18.60;58.30;;;;;;5026489;28;20214;-57
2022/04/27 01:26:53;;;;;;;7.95;6.70;;;18.70;58.30;;;;;;5025119;28;20211;-57
2022/04/27 01:29:25;;;;;;;3.88;3.35;;;18.70;58.20;;;;;;5025142;28;20699;-57
2022/04/27 01:32:01;;;;;;;4.57;3.80;;;18.70;58.20;;;;;;5023994;28;20651;-57
2022/04/27 01:34:33;;;;;;;4.70;2.70;;;18.70;58.10;;;;;;5024010;28;20192;-57
2022/04/27 01:39:57;;;;;;;4.45;3.20;;;18.80;58.00;;;;;;5025102;28;20297;-57
2022/04/27 01:42:31;;;;;;;3.72;3.03;;;18.80;57.90;;;;;;5025603;28;20214;-58
2022/04/27 01:45:11;;;;;;;5.22;4.60;;;18.90;57.90;;;;;;5024597;28;20609;-59
2022/04/27 01:47:42;;;;;;;5.35;4.57;;;18.90;57.90;;;;;;5025081;28;20275;-58
2022/04/27 01:50:17;;;;;;;5.32;4.28;;;18.90;57.80;;;;;;5025808;28;20707;-58
2022/04/27 01:55:41;;;;;;;6.18;4.93;;;19.00;57.80;;;;;;5024780;28;20358;-58
2022/04/27 01:58:13;;;;;;;6.82;4.78;;;19.00;57.70;;;;;;5025134;28;20192;-58
2022/04/27 02:00:46;;;;;;;6.80;5.47;;;19.00;57.60;;;;;;5023939;28;20289;-58
2022/04/27 02:03:21;;;;;;;6.00;4.78;;;19.10;57.60;;;;;;5023230;28;20262;-58
2022/04/27 02:05:53;;;;;;;5.93;4.95;;;19.10;57.50;;;;;;5023032;28;20339;-57
2022/04/27 02:08:30;;;;;;;9.07;5.78;;;19.10;57.40;;;;;;5025374;28;20207;-58
2022/04/27 02:11:02;;;;;;;6.95;5.30;;;19.10;57.30;;;;;;5023647;28;21163;-59
2022/04/27 02:13:33;;;;;;;5.82;4.53;;;19.20;57.20;;;;;;5024170;28;20585;-58
2022/04/27 02:16:08;;;;;;;5.53;4.10;;;19.20;57.20;;;;;;5024882;28;20215;-59
2022/04/27 02:18:42;;;;;;;5.88;4.57;;;19.20;57.20;;;;;;5022933;28;20670;-58
2022/04/27 02:21:16;;;;;;;7.15;5.10;;;19.20;57.20;;;;;;5023807;28;20423;-58
2022/04/27 02:23:58;;;;;;;6.25;4.65;;;19.20;57.20;;;;;;5023276;28;20204;-58
2022/04/27 02:26:29;;;;;;;6.30;4.43;;;19.30;57.20;;;;;;5025216;28;20307;-58
2022/04/27 02:29:00;;;;;;;7.35;4.50;;;19.30;57.20;;;;;;5024009;28;20200;-59
2022/04/27 02:31:32;;;;;;;6.72;4.72;;;19.40;57.20;;;;;;5024429;28;20189;-58
2022/04/27 02:34:03;;;;;;;6.07;4.63;;;19.40;57.10;;;;;;5024007;28;20222;-58
2022/04/27 02:36:37;;;;;;;8.18;4.95;;;19.40;57.00;;;;;;5023644;28;20991;-57
2022/04/27 02:39:12;;;;;;;6.53;4.38;;;19.40;56.90;;;;;;5023818;28;20188;-58
2022/04/27 02:41:44;;;;;;;6.07;4.20;;;19.50;56.90;;;;;;5022140;28;20188;-57
2022/04/27 02:44:19;;;;;;;6.47;4.35;;;19.50;56.80;;;;;;5022620;28;20200;-58
2022/04/27 02:46:50;;;;;;;5.82;4.28;;;19.50;56.70;;;;;;5023530;28;20242;-58
2022/04/27 02:52:09;;;;;;;4.68;4.22;;;19.60;56.70;;;;;;5024734;28;20687;-58
2022/04/27 02:54:42;;;;;;;6.22;4.32;;;19.60;56.60;;;;;;5012363;28;20193;-58
2022/04/27 02:57:14;;;;;;;5.35;4.00;;;19.70;56.70;;;;;;5012907;28;20386;-59
2022/04/27 02:59:45;;;;;;;4.88;3.85;;;19.70;56.60;;;;;;5011591;28;20228;-59
2022/04/27 03:02:17;;;;;;;5.47;3.90;;;19.70;56.60;;;;;;5011390;28;20255;-59
2022/04/27 03:04:51;;;;;;;4.68;3.67;;;19.80;56.60;;;;;;5011536;28;20692;-57
2022/04/27 03:07:22;;;;;;;5.80;4.00;;;19.80;56.60;;;;;;5010430;28;20271;-59
2022/04/27 03:09:54;;;;;;;5.93;4.07;;;19.80;56.50;;;;;;5012168;28;20243;-58
2022/04/27 03:12:24;;;;;;;5.05;3.53;;;19.90;56.50;;;;;;5011891;28;20197;-57
2022/04/27 03:14:55;;;;;;;5.50;3.63;;;19.90;56.40;;;;;;5010927;28;20345;-58
2022/04/27 03:17:26;;;;;;;5.40;3.40;;;19.90;56.40;;;;;;5011258;28;20216;-58
2022/04/27 03:19:57;;;;;;;7.88;4.10;;;20.00;56.40;;;;;;5011549;28;20220;-58
2022/04/27 03:22:27;;;;;;;5.22;3.88;;;20.00;56.40;;;;;;5011348;28;20233;-59
2022/04/27 03:25:00;;;;;;;6.07;4.00;;;20.00;56.30;;;;;;5011844;28;20258;-58
2022/04/27 03:27:31;;;;;;;3.85;3.20;;;20.10;56.30;;;;;;5011723;28;20216;-59
2022/04/27 03:30:01;;;;;;;4.55;3.67;;;20.10;56.20;;;;;;5011387;28;20201;-58
2022/04/27 03:32:32;;;;;;;5.57;3.60;;;20.10;56.20;;;;;;5011568;28;20193;-57
2022/04/27 03:35:02;;;;;;;5.25;3.70;;;20.20;56.30;;;;;;5011611;28;20255;-57
2022/04/27 03:37:34;;;;;;;6.65;3.58;;;20.20;56.20;;;;;;5011162;28;20244;-58
2022/04/27 03:40:07;;;;;;;5.60;3.80;;;20.20;56.10;;;;;;5011376;28;20220;-57
2022/04/27 03:42:37;;;;;;;4.95;3.45;;;20.30;56.10;;;;;;5011154;28;20204;-57
2022/04/27 03:45:08;;;;;;;3.88;3.38;;;20.30;56.70;;;;;;5010675;28;20232;-58
2022/04/27 03:47:39;;;;;;;4.85;3.55;;;20.30;56.10;;;;;;5012061;28;20314;-58
2022/04/27 03:50:10;;;;;;;5.10;3.50;;;20.30;56.00;;;;;;5011060;28;20601;-57
2022/04/27 03:52:41;;;;;;;5.00;3.13;;;20.40;56.00;;;;;;5010618;28;20201;-58
2022/04/27 03:55:14;;;;;;;5.15;3.10;;;20.40;56.00;;;;;;5010432;28;20201;-58
2022/04/27 03:57:44;;;;;;;4.90;3.42;;;20.40;56.00;;;;;;5010349;28;20192;-58
2022/04/27 04:00:15;;;;;;;4.28;3.30;;;20.40;55.80;;;;;;5011410;28;20220;-58
2022/04/27 04:02:46;;;;;;;6.90;3.60;;;20.50;55.90;;;;;;5011148;28;20225;-57
2022/04/27 04:05:16;;;;;;;5.35;2.83;;;20.50;55.90;;;;;;5010815;28;20610;-58
2022/04/27 04:07:47;;;;;;;5.35;3.28;;;20.50;55.90;;;;;;5010115;28;21079;-58
2022/04/27 04:10:20;;;;;;;7.38;4.80;;;20.50;55.90;;;;;;5011415;28;20275;-58
2022/04/27 04:12:50;;;;;;;6.85;4.15;;;20.50;55.80;;;;;;5011100;28;20248;-57
2022/04/27 04:15:21;;;;;;;6.43;3.95;;;20.50;55.60;;;;;;5010572;28;20591;-56
2022/04/27 04:17:51;;;;;;;6.60;4.40;;;20.50;55.60;;;;;;5010945;28;20295;-58
2022/04/27 04:20:22;;;;;;;6.25;4.38;;;20.50;55.50;;;;;;5010859;28;20275;-59
2022/04/27 04:22:53;;;;;;;7.25;4.85;;;20.60;55.50;;;;;;5010505;28;20270;-57
2022/04/27 04:30:59;;;;;;;7.97;4.95;;;20.60;55.50;;;;;;5010582;28;20563;-58
2022/04/27 04:33:30;;;;;;;6.97;4.75;;;20.60;55.50;;;;;;5010898;28;20255;-57
2022/04/27 04:36:01;;;;;;;5.82;4.20;;;20.60;55.50;;;;;;5010480;28;20221;-57
2022/04/27 04:38:31;;;;;;;8.38;4.68;;;20.60;55.40;;;;;;4997042;28;20275;-56
2022/04/27 04:41:03;;;;;;;7.03;4.40;;;20.60;56.00;;;;;;5010027;28;20264;-57
2022/04/27 04:43:34;;;;;;;7.53;4.50;;;20.60;55.40;;;;;;5009682;28;20208;-58
2022/04/27 04:46:05;;;;;;;5.28;3.63;;;20.60;55.30;;;;;;5009822;28;20315;-59
2022/04/27 04:48:35;;;;;;;5.25;3.97;;;20.60;55.30;;;;;;5010141;28;20833;-57
2022/04/27 04:51:06;;;;;;;6.60;4.35;;;20.60;55.30;;;;;;5010553;28;20201;-58
2022/04/27 04:53:37;;;;;;;6.18;4.15;;;20.60;55.40;;;;;;5008912;28;20259;-58
2022/04/27 04:56:09;;;;;;;7.18;4.65;;;20.60;55.40;;;;;;5009748;28;20217;-57
2022/04/27 04:58:39;;;;;;;8.38;4.30;;;20.60;55.40;;;;;;5009677;28;20216;-58
2022/04/27 05:01:10;;;;;;;6.35;4.40;;;20.50;55.40;;;;;;5009669;28;20220;-58
2022/04/27 05:03:41;;;;;;;7.35;4.47;;;20.50;55.30;;;;;;5010341;28;20627;-58
2022/04/27 05:06:11;;;;;;;5.97;4.43;;;20.50;55.40;;;;;;5009895;28;20684;-58
2022/04/27 05:08:42;;;;;;;5.97;4.43;;;20.50;55.40;;;;;;5008986;28;20189;-58
2022/04/27 05:11:14;;;;;;;7.90;4.60;;;20.50;55.40;;;;;;5009700;28;20201;-57
2022/04/27 05:13:45;;;;;;;8.07;4.20;;;20.50;55.40;;;;;;5009741;28;20197;-57
2022/04/27 05:16:15;;;;;;;4.72;3.90;;;20.50;55.40;;;;;;5009468;28;20225;-58
2022/04/27 05:18:46;;;;;;;6.65;3.80;;;20.50;55.40;;;;;;5009098;28;20200;-58
2022/04/27 05:21:16;;;;;;;6.28;3.90;;;20.50;55.50;;;;;;5008757;28;20236;-57
2022/04/27 05:23:47;;;;;;;6.10;3.90;;;20.50;55.50;;;;;;5008802;28;20197;-56
2022/04/27 05:26:19;;;;;;;4.88;3.70;;;20.40;55.50;;;;;;5009352;28;20290;-57
2022/04/27 05:34:33;;;;;;;5.30;3.97;;;20.40;55.50;;;;;;4973581;28;20503;-58
2022/04/27 05:37:04;;;;;;;6.18;4.35;;;20.40;55.50;;;;;;5008845;28;20215;-57
2022/04/27 05:39:34;;;;;;;5.57;4.05;;;20.40;55.50;;;;;;5008947;28;20290;-58
2022/04/27 05:42:07;;;;;;;7.03;3.92;;;20.40;55.50;;;;;;5009042;28;20260;-59
2022/04/27 05:44:38;;;;;;;4.85;3.80;;;20.40;55.50;;;;;;5008929;28;20775;-59
2022/04/27 05:47:08;;;;;;;5.55;4.00;;;20.30;56.10;;;;;;5009372;28;20213;-59
2022/04/27 05:49:39;;;;;;;6.22;4.25;;;20.30;55.40;;;;;;5009458;28;20204;-59
2022/04/27 05:52:10;;;;;;;5.75;4.22;;;20.30;55.40;;;;;;5009705;28;20575;-59
2022/04/27 05:54:40;;;;;;;6.35;4.30;;;20.30;55.50;;;;;;5008887;28;20193;-59
2022/04/27 05:57:12;;;;;;;4.70;3.80;;;20.20;56.00;;;;;;5009285;28;20318;-59
2022/04/27 05:59:43;;;;;;;5.72;3.38;;;20.30;55.50;;;;;;5009040;28;20355;-59
2022/04/27 06:02:14;;;;;;;3.92;3.42;;;20.30;55.50;;;;;;5008896;28;20235;-58
2022/04/27 06:04:45;;;;;;;5.60;3.80;;;20.20;55.50;;;;;;5009173;28;20201;-58
2022/04/27 06:07:15;;;;;;;5.43;3.53;;;20.20;55.60;;;;;;5008619;28;20309;-58
2022/04/27 06:09:46;;;;;;;6.03;3.90;;;20.20;55.60;;;;;;5008830;28;20197;-59
2022/04/27 06:12:18;;;;;;;5.10;3.92;;;20.20;55.60;;;;;;5009229;28;20193;-58
2022/04/27 06:14:48;;;;;;;5.68;3.70;;;20.10;55.60;;;;;;5008892;28;20236;-59
2022/04/27 06:17:19;;;;;;;4.25;3.60;;;20.10;55.60;;;;;;5009251;28;20225;-59
2022/04/27 06:19:49;;;;;;;6.03;3.80;;;20.10;55.60;;;;;;5009489;28;20225;-58
2022/04/27 06:22:22;;;;;;;4.50;3.40;;;20.10;55.60;;;;;;5013024;28;20641;-59
2022/04/27 06:24:53;;;;;;;5.13;3.83;;;20.10;55.60;;;;;;5012356;28;20214;-58
2022/04/27 06:27:25;;;;;;;5.00;3.47;;;20.10;55.60;;;;;;5012888;28;20333;-57
2022/04/27 06:29:56;;;;;;;5.03;3.90;;;20.10;55.60;;;;;;5012619;28;20608;-58
2022/04/27 06:32:26;;;;;;;5.38;3.30;;;20.10;55.70;;;;;;5012844;28;20243;-59
2022/04/27 06:34:57;;;;;;;5.20;3.70;;;20.10;55.60;;;;;;5012881;28;20278;-57
2022/04/27 06:37:27;;;;;;;5.07;3.72;;;20.10;55.60;;;;;;5012477;28;20279;-58
2022/04/27 06:39:58;;;;;;;4.72;3.70;;;20.00;55.60;;;;;;5011756;28;20201;-59
2022/04/27 06:42:30;;;;;;;4.57;3.47;;;20.00;55.70;;;;;;5011939;28;20260;-59
2022/04/27 06:45:03;;;;;;;4.75;3.67;;;20.00;55.70;;;;;;5011998;28;20310;-59
2022/04/27 06:47:34;;;;;;;5.15;3.53;;;20.00;55.70;;;;;;5012051;28;20221;-59
2022/04/27 06:50:06;;;;;;;4.28;3.70;;;20.00;55.70;;;;;;5012023;28;20247;-57
2022/04/27 06:52:43;;;;;;;6.97;3.67;;;19.90;55.70;;;;;;5012443;28;20204;-60
2022/04/27 06:55:14;;;;;;;4.85;3.17;;;19.90;55.70;;;;;;5011805;28;20200;-58
2022/04/27 06:57:47;;;;;;;5.20;3.03;;;19.90;55.70;;;;;;5011915;28;20263;-57
2022/04/27 07:00:18;;;;;;;6.50;3.72;;;19.90;55.70;;;;;;5011392;28;20555;-59
2022/04/27 07:02:48;;;;;;;3.72;3.15;;;19.90;55.70;;;;;;5011784;28;20228;-58
2022/04/27 07:05:20;;;;;;;4.32;3.30;;;19.90;55.80;;;;;;5011974;28;20251;-59
2022/04/27 07:07:51;;;;;;;4.60;3.42;;;19.90;55.80;;;;;;5012204;28;20288;-59
2022/04/27 07:10:21;;;;;;;4.97;3.45;;;19.80;55.70;;;;;;5011978;28;20243;-59
2022/04/27 07:12:54;;;;;;;5.22;3.53;;;19.80;55.80;;;;;;5012084;28;20625;-59
2022/04/27 07:15:24;;;;;;;4.00;3.60;;;19.80;55.80;;;;;;5011521;28;20263;-59
2022/04/27 07:17:55;;;;;;;4.63;3.30;;;19.80;55.80;;;;;;5011947;28;20250;-58
2022/04/27 07:20:25;;;;;;;3.53;3.10;;;19.80;55.80;;;;;;5011894;28;20201;-58
2022/04/27 07:22:56;;;;;;;3.58;3.13;;;19.80;55.80;;;;;;5012230;28;20267;-59
2022/04/27 07:25:27;;;;;;;4.68;3.15;;;19.80;55.80;;;;;;5011553;28;20564;-58
2022/04/27 07:27:59;;;;;;;4.82;3.58;;;19.80;55.80;;;;;;5011965;28;20702;-58
2022/04/27 07:30:30;;;;;;;3.55;2.85;;;19.80;55.80;;;;;;5012113;28;20786;-58
2022/04/27 07:33:00;;;;;;;4.80;3.20;;;19.80;55.90;;;;;;5011037;28;20326;-58
2022/04/27 07:35:31;;;;;;;4.65;3.20;;;19.70;55.80;;;;;;5012002;28;20204;-57
2022/04/27 07:38:01;;;;;;;5.70;3.70;;;19.70;55.80;;;;;;5011884;28;20197;-58
2022/04/27 07:40:32;;;;;;;3.95;3.38;;;19.70;55.80;;;;;;5011100;28;20197;-59
2022/04/27 07:43:04;;;;;;;4.38;3.45;;;19.70;55.80;;;;;;5011474;28;20279;-58
2022/04/27 07:45:35;;;;;;;3.85;3.20;;;19.70;55.90;;;;;;5011722;28;20236;-59
2022/04/27 07:48:05;;;;;;;3.78;3.00;;;19.70;55.90;;;;;;5011712;28;20196;-59
2022/04/27 07:50:41;;;;;;;4.22;3.38;;;19.60;55.90;;;;;;5011602;28;20617;-57
2022/04/27 07:53:11;;;;;;;5.20;3.28;;;19.60;55.90;;;;;;5011422;28;20200;-58
2022/04/27 07:55:42;;;;;;;3.72;3.20;;;19.60;55.90;;;;;;5010991;28;20256;-58
2022/04/27 07:58:14;;;;;;;4.05;3.20;;;19.60;55.90;;;;;;5011485;28;20204;-59
2022/04/27 08:00:45;;;;;;;3.95;3.00;;;19.60;55.90;;;;;;5011370;28;20212;-59
2022/04/27 08:03:16;;;;;;;3.67;3.25;;;19.60;56.00;;;;;;5010594;28;20258;-58
2022/04/27 08:05:46;;;;;;;3.55;3.15;;;19.60;55.90;;;;;;5010964;28;20594;-58
2022/04/27 08:08:17;;;;;;;3.90;3.08;;;19.60;56.00;;;;;;5011334;28;20220;-59
2022/04/27 08:10:47;;;;;;;3.53;3.15;;;19.60;56.00;;;;;;5011049;28;20201;-58
2022/04/27 08:13:20;;;;;;;4.45;3.15;;;19.60;56.20;;;;;;5011187;28;20193;-58
2022/04/27 08:15:50;;;;;;;4.10;2.85;;;19.60;56.00;;;;;;5011059;28;20251;-58
2022/04/27 08:18:23;;;;;;;5.07;3.25;;;19.60;56.00;;;;;;5010752;28;20263;-58
2022/04/27 08:23:41;;;;;;;4.80;2.85;;;19.50;56.00;;;;;;5010636;28;20204;-58
2022/04/27 08:26:12;;;;;;;3.55;3.10;;;19.50;56.00;;;;;;5010710;28;20213;-59
2022/04/27 08:28:45;;;;;;;3.53;2.85;;;19.50;56.00;;;;;;5010600;28;20236;-58
2022/04/27 08:31:17;;;;;;;3.85;3.20;;;19.50;56.10;;;;;;5010335;28;20196;-58
2022/04/27 08:33:48;;;;;;;3.40;3.00;;;19.50;56.10;;;;;;5010972;28;20197;-58
2022/04/27 08:36:18;;;;;;;2.88;2.60;;;19.50;56.10;;;;;;5010666;28;20220;-58
2022/04/27 08:38:51;;;;;;;3.90;3.15;;;19.50;56.10;;;;;;5010563;28;20295;-57
2022/04/27 08:41:21;;;;;;;3.92;2.80;;;19.40;56.00;;;;;;5010058;28;20221;-58
2022/04/27 08:43:54;;;;;;;3.88;3.03;;;19.50;56.10;;;;;;5009833;28;20205;-58
2022/04/27 08:46:26;;;;;;;3.67;2.80;;;19.40;56.10;;;;;;5010290;28;20217;-58
2022/04/27 08:48:57;;;;;;;3.60;2.70;;;19.40;56.10;;;;;;5009195;28;20189;-59
2022/04/27 08:51:27;;;;;;;3.83;2.95;;;19.40;56.10;;;;;;5010241;28;20201;-57
2022/04/27 08:53:58;;;;;;;4.70;3.22;;;19.40;56.20;;;;;;5010128;28;20727;-58
2022/04/27 08:56:30;;;;;;;3.03;2.72;;;19.40;56.20;;;;;;5009552;28;20224;-57
2022/04/27 08:59:03;;;;;;;3.33;2.92;;;19.40;56.20;;;;;;5009859;28;20290;-59
2022/04/27 09:01:33;;;;;;;5.65;3.47;;;19.40;56.50;;;;;;5009703;28;20228;-58
2022/04/27 09:04:17;;;;;;;4.20;3.22;;;19.40;56.70;;;;;;5009744;28;20258;-59
2022/04/27 09:06:49;;;;;;;6.00;2.92;;;19.40;56.70;;;;;;5009583;28;20217;-58
2022/04/27 09:09:36;;;;;;;3.78;2.88;;;19.40;56.70;;;;;;5010031;28;20228;-59
2022/04/27 09:12:15;;;;;;;3.83;3.05;;;19.40;56.70;;;;;;4990469;28;20201;-58
2022/04/27 09:14:47;;;;;;;4.22;2.90;;;19.40;56.70;;;;;;4999881;28;20200;-59
2022/04/27 09:23:07;;;;;;;3.10;2.75;;;19.30;56.70;;;;;;5009649;28;20266;-59
2022/04/27 09:25:39;;;;;;;4.60;3.00;;;19.40;56.70;;;;;;5014961;28;20212;-59
2022/04/27 09:28:09;;;;;;;4.25;2.92;;;19.40;56.70;;;;;;5023894;28;20246;-58
2022/04/27 09:30:45;;;;;;;4.35;3.25;;;19.30;56.70;;;;;;5024478;28;20238;-58
2022/04/27 09:33:15;;;;;;;4.32;2.88;;;19.30;56.60;;;;;;5026061;28;20195;-58
2022/04/27 09:35:46;;;;;;;4.32;3.00;;;19.30;56.70;;;;;;5026643;28;20265;-59
2022/04/27 09:38:18;;;;;;;3.67;3.20;;;19.30;56.70;;;;;;5027302;28;20330;-59
2022/04/27 09:40:53;;;;;;;4.28;2.83;;;19.30;56.60;;;;;;5023678;28;20686;-58
2022/04/27 09:43:43;;;;;;;3.72;2.83;;;19.30;56.60;;;;;;5025941;28;20219;-59
2022/04/27 09:46:25;;;;;;;3.38;2.65;;;19.20;56.60;;;;;;5026283;28;20786;-58
2022/04/27 09:49:14;;;;;;;3.80;2.70;;;19.30;56.60;;;;;;5026612;28;20771;-59
2022/04/27 09:51:51;;;;;;;3.40;2.95;;;19.30;56.60;;;;;;5028355;28;20211;-59
2022/04/27 09:54:23;;;;;;;4.10;3.35;;;19.30;56.60;;;;;;5026494;28;20786;-58
2022/04/27 09:56:55;;;;;;;3.67;2.78;;;19.20;56.60;;;;;;5027465;28;20228;-59
2022/04/27 09:59:30;;;;;;;3.40;2.80;;;19.20;56.60;;;;;;5025243;28;20204;-59
2022/04/27 10:02:03;;;;;;;3.03;2.65;;;19.20;56.60;;;;;;5027271;28;20568;-58
2022/04/27 10:04:34;;;;;;;3.67;2.65;;;19.20;56.60;;;;;;5027228;28;20220;-59
2022/04/27 10:07:07;;;;;;;4.20;2.80;;;19.20;56.60;;;;;;5026877;28;20270;-58
2022/04/27 10:09:38;;;;;;;3.45;2.70;;;19.20;56.60;;;;;;5027368;28;20200;-59
2022/04/27 10:12:11;;;;;;;3.10;2.67;;;19.20;56.60;;;;;;5027366;28;20204;-58
2022/04/27 10:14:42;;;;;;;3.80;2.63;;;19.20;56.60;;;;;;5026642;28;20192;-58
2022/04/27 10:17:15;;;;;;;3.90;2.97;;;19.20;56.60;;;;;;5026882;28;20216;-59
2022/04/27 10:19:50;;;;;;;3.80;3.00;;;19.20;56.60;;;;;;5026034;28;20613;-58
2022/04/27 10:22:31;;;;;;;3.00;2.50;;;19.20;56.60;;;;;;5026678;28;20223;-58
2022/04/27 10:25:07;;;;;;;4.22;2.90;;;19.20;56.60;;;;;;5026899;28;20201;-58
2022/04/27 10:27:41;;;;;;;3.22;2.75;;;19.20;56.60;;;;;;5025864;28;20216;-59
2022/04/27 10:30:13;;;;;;;3.33;2.70;;;19.10;57.20;;;;;;5026825;28;20202;-59
2022/04/27 10:32:47;;;;;;;4.05;2.70;;;19.10;56.60;;;;;;5026352;28;20274;-60
2022/04/27 10:35:33;;;;;;;3.80;2.63;;;19.10;56.60;;;;;;5027221;28;20326;-58
2022/04/27 10:38:05;;;;;;;3.33;2.60;;;19.10;56.60;;;;;;5026101;28;20242;-59
2022/04/27 10:40:36;;;;;;;4.25;3.17;;;19.10;56.60;;;;;;5018065;28;20357;-58
2022/04/27 10:43:15;;;;;;;3.05;2.58;;;19.10;56.60;;;;;;5022921;28;20294;-58
2022/04/27 10:45:47;;;;;;;3.08;2.30;;;19.10;56.60;;;;;;5025349;28;20224;-58
2022/04/27 10:48:23;;;;;;;3.03;2.42;;;19.10;56.60;;;;;;5026923;28;20675;-58
2022/04/27 10:51:03;;;;;;;3.55;2.70;;;19.10;56.70;;;;;;5027960;28;20258;-58
2022/04/27 10:53:42;;;;;;;2.97;2.70;;;19.10;56.70;;;;;;5027710;28;20196;-58
2022/04/27 10:56:25;;;;;;;4.78;2.70;;;19.00;56.60;;;;;;5026475;28;20208;-58
2022/04/27 10:58:56;;;;;;;2.78;2.55;;;19.00;56.70;;;;;;5024698;28;20274;-58
2022/04/27 11:01:34;;;;;;;2.97;2.60;;;19.00;56.60;;;;;;5025843;28;20262;-59
2022/04/27 11:04:11;;;;;;;3.38;2.67;;;19.00;56.60;;;;;;5026752;28;20626;-58
2022/04/27 11:07:24;;;;;;;3.60;2.60;;;19.00;56.60;;;;;;5027353;28;20222;-58
2022/04/27 11:10:20;;;;;;;2.90;2.35;;;19.00;56.60;;;;;;5030650;28;20200;-58
2022/04/27 11:12:52;;;;;;;4.10;3.08;;;19.00;56.60;;;;;;5026904;28;20213;-58
2022/04/27 11:15:24;;;;;;;2.78;2.40;;;19.00;56.60;;;;;;5028234;28;20664;-59
2022/04/27 11:18:00;;;;;;;3.60;2.70;;;19.00;56.60;;;;;;5030305;28;20661;-58
2022/04/27 11:20:38;;;;;;;2.90;2.60;;;19.00;56.60;;;;;;5029014;28;20578;-59
2022/04/27 11:23:09;;;;;;;3.30;2.47;;;19.00;56.70;;;;;;5029313;28;20247;-58
2022/04/27 11:25:41;;;;;;;3.35;2.50;;;19.00;56.60;;;;;;5028851;28;20329;-59
2022/04/27 11:28:13;;;;;;;3.17;2.60;;;19.00;56.70;;;;;;5029197;28;20207;-59
2022/04/27 11:30:44;;;;;;;2.90;2.30;;;19.00;56.70;;;;;;5029933;28;20232;-59
2022/04/27 11:33:18;;;;;;;3.30;2.53;;;19.00;56.70;;;;;;5030407;28;20249;-59
2022/04/27 11:35:51;;;;;;;3.42;2.58;;;19.00;56.70;;;;;;5021084;28;20212;-59
2022/04/27 11:38:22;;;;;;;3.22;2.70;;;18.90;56.60;;;;;;5012934;28;20189;-60
2022/04/27 11:40:53;;;;;;;4.18;2.70;;;18.90;56.70;;;;;;5012622;28;20635;-59
2022/04/27 11:43:27;;;;;;;2.85;2.60;;;18.90;56.70;;;;;;5011951;28;20309;-60
2022/04/27 11:45:59;;;;;;;3.03;2.30;;;18.90;56.70;;;;;;5009286;28;20212;-60
2022/04/27 11:48:32;;;;;;;2.25;2.05;;;18.90;56.60;;;;;;5011989;28;20193;-60
2022/04/27 11:51:06;;;;;;;3.58;2.67;;;18.90;56.70;;;;;;5010930;28;20653;-60
2022/04/27 11:53:46;;;;;;;2.42;2.20;;;18.90;56.70;;;;;;5011351;28;20537;-58
2022/04/27 11:56:18;;;;;;;3.22;2.20;;;18.90;56.70;;;;;;5011428;28;20754;-59
2022/04/27 11:58:48;;;;;;;2.47;2.28;;;18.90;56.60;;;;;;5011663;28;20224;-59
2022/04/27 12:01:24;;;;;;;3.67;2.50;;;18.90;56.70;;;;;;5008111;28;20231;-60
2022/04/27 12:03:55;;;;;;;4.20;2.45;;;18.90;56.70;;;;;;5010068;28;20213;-61
2022/04/27 12:06:28;;;;;;;3.00;2.20;;;18.90;56.70;;;;;;5010023;28;20696;-59
2022/04/27 12:09:03;;;;;;;2.88;2.42;;;18.80;56.70;;;;;;5007822;28;20197;-59
2022/04/27 12:11:34;;;;;;;2.28;2.08;;;18.80;56.60;;;;;;5010254;28;20196;-59
2022/04/27 12:14:04;;;;;;;3.20;2.50;;;18.80;56.70;;;;;;5009906;28;20201;-60
2022/04/27 12:16:35;;;;;;;3.72;2.63;;;18.80;56.70;;;;;;5009624;28;20696;-62
2022/04/27 12:19:06;;;;;;;3.08;2.42;;;18.80;56.70;;;;;;5009747;28;20193;-59
2022/04/27 12:21:38;;;;;;;3.72;2.55;;;18.80;56.70;;;;;;5009711;28;20288;-60
2022/04/27 12:24:20;;;;;;;2.55;2.13;;;18.80;56.70;;;;;;5009713;28;20314;-58
2022/04/27 12:26:50;;;;;;;2.22;2.03;;;18.80;56.70;;;;;;5008332;28;20240;-59
2022/04/27 12:29:25;;;;;;;2.55;2.20;;;18.80;56.70;;;;;;5007835;28;20198;-61
2022/04/27 12:31:59;;;;;;;2.67;2.22;;;18.80;56.70;;;;;;5009954;28;20266;-60
2022/04/27 12:37:32;;;;;;;2.67;2.28;;;18.80;56.70;;;;;;4990421;28;20221;-61
2022/04/27 12:40:16;;;;;;;3.17;2.25;;;18.80;56.70;;;;;;4972276;28;20203;-60
2022/04/27 12:43:07;;;;;;;2.70;2.20;;;18.80;56.70;;;;;;4972108;28;20225;-61
2022/04/27 12:45:38;;;;;;;3.03;2.40;;;18.80;56.70;;;;;;4988851;28;20217;-62
2022/04/27 12:48:28;;;;;;;2.95;2.20;;;18.80;56.70;;;;;;4991448;28;20229;-61
2022/04/27 12:51:02;;;;;;;2.83;2.33;;;18.80;56.80;;;;;;4991367;28;20190;-64
2022/04/27 12:53:35;;;;;;;3.13;2.17;;;18.70;56.70;;;;;;4991271;28;20255;-60
2022/04/27 12:56:11;;;;;;;2.97;2.50;;;18.70;57.30;;;;;;4991451;28;20217;-61
2022/04/27 12:58:42;;;;;;;3.15;2.22;;;18.70;56.70;;;;;;4990966;28;20365;-60
2022/04/27 13:01:30;;;;;;;2.88;2.30;;;18.70;56.70;;;;;;4990770;28;20248;-62
2022/04/27 13:04:00;;;;;;;3.63;2.30;;;18.70;56.70;;;;;;4991033;28;20234;-60
2022/04/27 13:06:32;;;;;;;2.60;1.98;;;18.70;56.70;;;;;;4990474;28;20217;-59
2022/04/27 13:12:00;;;;;;;2.92;2.30;;;18.70;56.80;;;;;;4990576;28;20200;-59
2022/04/27 13:14:31;;;;;;;2.60;2.28;;;18.70;56.80;;;;;;4990869;28;20237;-61
2022/04/27 13:17:02;;;;;;;2.65;2.40;;;18.70;56.70;;;;;;4990727;28;20224;-60
2022/04/27 13:19:32;;;;;;;2.63;2.40;;;18.70;56.70;;;;;;4990673;28;20201;-61
2022/04/27 13:22:03;;;;;;;2.58;2.38;;;18.70;56.70;;;;;;4990402;28;20198;-59
2022/04/27 13:24:35;;;;;;;2.75;2.35;;;18.60;56.70;;;;;;4990887;28;20235;-61
2022/04/27 13:27:06;;;;;;;2.45;1.95;;;18.60;56.80;;;;;;4990519;28;20280;-60
2022/04/27 13:29:37;;;;;;;2.33;2.13;;;18.60;56.70;;;;;;4989709;28;20201;-60
2022/04/27 13:32:08;;;;;;;3.05;2.28;;;18.60;56.70;;;;;;4990509;28;20232;-59
2022/04/27 13:34:38;;;;;;;3.10;2.35;;;18.60;56.80;;;;;;4990672;28;20201;-59
2022/04/27 13:37:09;;;;;;;2.80;2.25;;;18.60;56.70;;;;;;4990403;28;20291;-59
2022/04/27 13:39:41;;;;;;;2.42;2.20;;;18.60;56.80;;;;;;4990753;28;20201;-60
2022/04/27 13:42:13;;;;;;;3.47;2.60;;;18.60;56.80;;;;;;4990110;28;20259;-59
2022/04/27 13:44:43;;;;;;;3.00;2.40;;;18.60;56.80;;;;;;4989548;28;20225;-60
2022/04/27 13:47:14;;;;;;;2.10;1.90;;;18.60;56.80;;;;;;4989806;28;20249;-59
2022/04/27 13:49:44;;;;;;;2.17;1.95;;;18.60;56.80;;;;;;4990603;28;20225;-60
2022/04/27 13:52:15;;;;;;;2.63;2.00;;;18.60;56.80;;;;;;4990940;28;20193;-60